sensor_id;sensor_type;location;lat;lon;timestamp;noise_LAeq;noise_LA_min;noise_LA_max;noise_LA01;noise_LA95
78273;Laerm;67530;52.282;5.972;2023-04-24T00:00:07;57.1;54.8;59.2;;
78273;Laerm;67530;52.282;5.972;2023-04-24T00:00:27;57.6;53.3;67;;
78273;Laerm;67530;52.282;5.972;2023-04-24T00:00:47;57.4;53;59.6;;
78273;Laerm;67530;52.282;5.972;2023-04-24T00:01:07;58;55.6;59.4;;
78273;Laerm;67530;52.282;5.972;2023-04-24T00:01:27;58.3;55.4;59.8;;
78273;Laerm;67530;52.282;5.972;2023-04-24T00:01:48;57.5;54.4;60.5;;
78273;Laerm;67530;52.282;5.972;2023-04-24T00:02:08;58.6;53.5;60.8;;
78273;Laerm;67530;52.282;5.972;2023-04-24T00:02:28;58.7;54.4;60.8;;
78273;Laerm;67530;52.282;5.972;2023-04-24T00:02:48;57.8;55;60.6;;
78273;Laerm;67530;52.282;5.972;2023-04-24T00:03:08;59.5;57.1;60.7;;
78273;Laerm;67530;52.282;5.972;2023-04-24T00:03:28;59.4;55.6;60.5;;
78273;Laerm;67530;52.282;5.972;2023-04-24T00:03:48;59.3;56.3;60.6;;
78273;Laerm;67530;52.282;5.972;2023-04-24T00:04:08;59.3;54.4;60.7;;
78273;Laerm;67530;52.282;5.972;2023-04-24T00:04:28;59.4;55.5;60.7;;
78273;Laerm;67530;52.282;5.972;2023-04-24T00:04:48;59.1;55.9;60.5;;
78273;Laerm;67530;52.282;5.972;2023-04-24T00:05:08;58.4;54.3;60.6;;
78273;Laerm;67530;52.282;5.972;2023-04-24T00:05:28;59;56.5;60.3;;
78273;Laerm;67530;52.282;5.972;2023-04-24T00:05:48;58.6;55.9;59.8;;
78273;Laerm;67530;52.282;5.972;2023-04-24T00:06:08;59.5;54.1;67.6;;
78273;Laerm;67530;52.282;5.972;2023-04-24T00:06:29;57.9;53.6;60;;
78273;Laerm;67530;52.282;5.972;2023-04-24T00:06:48;58.3;55.4;59.5;;
78273;Laerm;67530;52.282;5.972;2023-04-24T00:07:08;57.2;53.4;59.6;;
78273;Laerm;67530;52.282;5.972;2023-04-24T00:07:28;57.7;54.6;59.5;;
78273;Laerm;67530;52.282;5.972;2023-04-24T00:07:49;57.3;53.9;59.2;;
78273;Laerm;67530;52.282;5.972;2023-04-24T00:08:09;57.4;54.8;60.4;;
78273;Laerm;67530;52.282;5.972;2023-04-24T00:08:29;58.8;56.1;60.3;;
78273;Laerm;67530;52.282;5.972;2023-04-24T00:08:49;58.6;55.4;60.2;;
78273;Laerm;67530;52.282;5.972;2023-04-24T00:09:09;58.2;53.9;59.9;;
78273;Laerm;67530;52.282;5.972;2023-04-24T00:09:29;58.2;54;60.2;;
78273;Laerm;67530;52.282;5.972;2023-04-24T00:09:49;58.9;55;60.2;;
78273;Laerm;67530;52.282;5.972;2023-04-24T00:10:09;58.2;54.6;60.1;;
78273;Laerm;67530;52.282;5.972;2023-04-24T00:10:29;58.9;54.9;60.6;;
78273;Laerm;67530;52.282;5.972;2023-04-24T00:10:49;58.8;54.8;60.6;;
78273;Laerm;67530;52.282;5.972;2023-04-24T00:11:09;58.1;53.8;60.1;;
78273;Laerm;67530;52.282;5.972;2023-04-24T00:11:29;58;54.7;59.8;;
78273;Laerm;67530;52.282;5.972;2023-04-24T00:11:49;59.1;55.3;60.5;;
78273;Laerm;67530;52.282;5.972;2023-04-24T00:12:09;58.4;55;60.4;;
78273;Laerm;67530;52.282;5.972;2023-04-24T00:12:29;58;54.2;60.1;;
78273;Laerm;67530;52.282;5.972;2023-04-24T00:12:49;58.9;54.8;60.5;;
78273;Laerm;67530;52.282;5.972;2023-04-24T00:13:09;58.5;54.2;60;;
78273;Laerm;67530;52.282;5.972;2023-04-24T00:13:30;57.4;53.3;61;;
78273;Laerm;67530;52.282;5.972;2023-04-24T00:13:50;58.7;55.4;60.2;;
78273;Laerm;67530;52.282;5.972;2023-04-24T00:14:10;57.9;55.2;59.8;;
78273;Laerm;67530;52.282;5.972;2023-04-24T00:14:30;59.3;55.8;60.6;;
78273;Laerm;67530;52.282;5.972;2023-04-24T00:14:50;59.1;56;60.4;;
78273;Laerm;67530;52.282;5.972;2023-04-24T00:15:10;58.6;55.5;60.3;;
78273;Laerm;67530;52.282;5.972;2023-04-24T00:15:30;59.4;57.4;60.8;;
78273;Laerm;67530;52.282;5.972;2023-04-24T00:15:50;58.4;55;60.2;;
78273;Laerm;67530;52.282;5.972;2023-04-24T00:16:10;59;54.4;60.3;;
78273;Laerm;67530;52.282;5.972;2023-04-24T00:16:30;58;53.9;60.4;;
78273;Laerm;67530;52.282;5.972;2023-04-24T00:16:50;58.2;55.7;60.3;;
78273;Laerm;67530;52.282;5.972;2023-04-24T00:17:10;58;54.8;60;;
78273;Laerm;67530;52.282;5.972;2023-04-24T00:17:30;58.5;54.4;60.1;;
78273;Laerm;67530;52.282;5.972;2023-04-24T00:17:50;57.9;55.4;60.2;;
78273;Laerm;67530;52.282;5.972;2023-04-24T00:18:10;58.2;54.7;60.3;;
78273;Laerm;67530;52.282;5.972;2023-04-24T00:18:31;58.7;55.4;60.2;;
78273;Laerm;67530;52.282;5.972;2023-04-24T00:18:51;58.2;55.8;60;;
78273;Laerm;67530;52.282;5.972;2023-04-24T00:19:11;58.9;55.1;60.3;;
78273;Laerm;67530;52.282;5.972;2023-04-24T00:19:31;57.7;54.9;60.1;;
78273;Laerm;67530;52.282;5.972;2023-04-24T00:19:51;59.5;56.7;60.8;;
78273;Laerm;67530;52.282;5.972;2023-04-24T00:20:11;58.2;54.8;60.4;;
78273;Laerm;67530;52.282;5.972;2023-04-24T00:20:31;60.1;58.6;61.3;;
78273;Laerm;67530;52.282;5.972;2023-04-24T00:20:51;59.8;58.2;60.8;;
78273;Laerm;67530;52.282;5.972;2023-04-24T00:21:11;59.9;57.9;60.8;;
78273;Laerm;67530;52.282;5.972;2023-04-24T00:21:31;60;58;61.3;;
78273;Laerm;67530;52.282;5.972;2023-04-24T00:21:51;60.2;58;61.2;;
78273;Laerm;67530;52.282;5.972;2023-04-24T00:22:11;60.2;57.9;61.3;;
78273;Laerm;67530;52.282;5.972;2023-04-24T00:22:31;60.1;58.2;61.5;;
78273;Laerm;67530;52.282;5.972;2023-04-24T00:22:51;59.8;57;60.9;;
78273;Laerm;67530;52.282;5.972;2023-04-24T00:23:11;60;57.8;61;;
78273;Laerm;67530;52.282;5.972;2023-04-24T00:23:31;59.7;56.9;60.9;;
78273;Laerm;67530;52.282;5.972;2023-04-24T00:23:52;59.5;56.4;60.8;;
78273;Laerm;67530;52.282;5.972;2023-04-24T00:24:12;58.6;54.4;60.2;;
78273;Laerm;67530;52.282;5.972;2023-04-24T00:24:32;58.3;53.6;60.4;;
78273;Laerm;67530;52.282;5.972;2023-04-24T00:24:52;58.4;54.5;59.8;;
78273;Laerm;67530;52.282;5.972;2023-04-24T00:25:12;58.4;54.9;59.6;;
78273;Laerm;67530;52.282;5.972;2023-04-24T00:25:32;58.3;54.7;59.9;;
78273;Laerm;67530;52.282;5.972;2023-04-24T00:25:52;58.5;56.8;59.6;;
78273;Laerm;67530;52.282;5.972;2023-04-24T00:26:32;58.7;56.2;60;;
78273;Laerm;67530;52.282;5.972;2023-04-24T00:26:52;58.3;55.5;59.5;;
78273;Laerm;67530;52.282;5.972;2023-04-24T00:27:12;57.8;54.8;59.7;;
78273;Laerm;67530;52.282;5.972;2023-04-24T00:27:32;58.2;54.7;59.8;;
78273;Laerm;67530;52.282;5.972;2023-04-24T00:27:52;57.9;53.7;59.5;;
78273;Laerm;67530;52.282;5.972;2023-04-24T00:28:12;58.5;56.3;59.9;;
78273;Laerm;67530;52.282;5.972;2023-04-24T00:28:32;57;52.8;59.4;;
78273;Laerm;67530;52.282;5.972;2023-04-24T00:28:52;58.4;54.5;59.7;;
78273;Laerm;67530;52.282;5.972;2023-04-24T00:29:12;57.9;54.2;61.9;;
78273;Laerm;67530;52.282;5.972;2023-04-24T00:29:32;57.9;53.2;60;;
78273;Laerm;67530;52.282;5.972;2023-04-24T00:29:53;57.5;54;59.9;;
78273;Laerm;67530;52.282;5.972;2023-04-24T00:30:13;57.7;54.6;60.3;;
78273;Laerm;67530;52.282;5.972;2023-04-24T00:30:33;57.5;51.9;59.9;;
78273;Laerm;67530;52.282;5.972;2023-04-24T00:30:53;58.5;54.6;59.7;;
78273;Laerm;67530;52.282;5.972;2023-04-24T00:31:13;58.4;54.9;60;;
78273;Laerm;67530;52.282;5.972;2023-04-24T00:31:33;57.8;53.6;60;;
78273;Laerm;67530;52.282;5.972;2023-04-24T00:31:53;57.9;53.9;60.3;;
78273;Laerm;67530;52.282;5.972;2023-04-24T00:32:13;58.8;56.5;60;;
78273;Laerm;67530;52.282;5.972;2023-04-24T00:32:33;57.1;52.7;61.5;;
78273;Laerm;67530;52.282;5.972;2023-04-24T00:32:53;57.9;54.2;59.6;;
78273;Laerm;67530;52.282;5.972;2023-04-24T00:33:13;58.1;54.5;59.8;;
78273;Laerm;67530;52.282;5.972;2023-04-24T00:33:33;57;53.2;60.1;;
78273;Laerm;67530;52.282;5.972;2023-04-24T00:33:53;57.5;54.5;59.2;;
78273;Laerm;67530;52.282;5.972;2023-04-24T00:34:13;57.7;54.2;66.3;;
78273;Laerm;67530;52.282;5.972;2023-04-24T00:34:33;57.6;52.9;59.2;;
78273;Laerm;67530;52.282;5.972;2023-04-24T00:34:53;57.9;55;58.9;;
78273;Laerm;67530;52.282;5.972;2023-04-24T00:35:13;57.1;53.4;58.5;;
78273;Laerm;67530;52.282;5.972;2023-04-24T00:35:34;57;52;59.1;;
78273;Laerm;67530;52.282;5.972;2023-04-24T00:35:54;56;52.1;61.7;;
78273;Laerm;67530;52.282;5.972;2023-04-24T00:36:14;57.1;53.8;59.1;;
78273;Laerm;67530;52.282;5.972;2023-04-24T00:36:34;56.1;51.8;58.5;;
78273;Laerm;67530;52.282;5.972;2023-04-24T00:36:54;56.7;52.9;58.4;;
78273;Laerm;67530;52.282;5.972;2023-04-24T00:37:14;56.6;53.5;58.2;;
78273;Laerm;67530;52.282;5.972;2023-04-24T00:37:34;55.6;51.9;58;;
78273;Laerm;67530;52.282;5.972;2023-04-24T00:37:54;56.2;51.1;58;;
78273;Laerm;67530;52.282;5.972;2023-04-24T00:38:14;56.4;53.3;57.8;;
78273;Laerm;67530;52.282;5.972;2023-04-24T00:38:34;56.6;54.3;58;;
78273;Laerm;67530;52.282;5.972;2023-04-24T00:38:54;54.6;50.8;60.3;;
78273;Laerm;67530;52.282;5.972;2023-04-24T00:39:14;54.9;52.1;56.9;;
78273;Laerm;67530;52.282;5.972;2023-04-24T00:39:34;55.5;50.7;61.5;;
78273;Laerm;67530;52.282;5.972;2023-04-24T00:39:54;54.5;51.2;60.1;;
78273;Laerm;67530;52.282;5.972;2023-04-24T00:40:14;53.7;49.7;56;;
78273;Laerm;67530;52.282;5.972;2023-04-24T00:40:34;54.9;51.5;60.1;;
78273;Laerm;67530;52.282;5.972;2023-04-24T00:40:54;54.8;50.3;58.9;;
78273;Laerm;67530;52.282;5.972;2023-04-24T00:41:15;55.2;51.2;57;;
78273;Laerm;67530;52.282;5.972;2023-04-24T00:41:35;54.9;50.3;56.6;;
78273;Laerm;67530;52.282;5.972;2023-04-24T00:41:55;55;51;56.8;;
78273;Laerm;67530;52.282;5.972;2023-04-24T00:42:15;54.3;51.8;56.9;;
78273;Laerm;67530;52.282;5.972;2023-04-24T00:42:35;55.1;50.4;57.1;;
78273;Laerm;67530;52.282;5.972;2023-04-24T00:42:55;53.8;49.2;56.1;;
78273;Laerm;67530;52.282;5.972;2023-04-24T00:43:15;54.1;50.3;59.2;;
78273;Laerm;67530;52.282;5.972;2023-04-24T00:43:35;54.5;50.9;56;;
78273;Laerm;67530;52.282;5.972;2023-04-24T00:43:55;53.8;49.9;55.8;;
78273;Laerm;67530;52.282;5.972;2023-04-24T00:44:15;54.2;50.2;55.9;;
78273;Laerm;67530;52.282;5.972;2023-04-24T00:44:35;53.7;49.4;55.9;;
78273;Laerm;67530;52.282;5.972;2023-04-24T00:44:55;53.1;49.3;55.6;;
78273;Laerm;67530;52.282;5.972;2023-04-24T00:45:15;54;50.4;55.7;;
78273;Laerm;67530;52.282;5.972;2023-04-24T00:45:35;54.2;51.6;55.9;;
78273;Laerm;67530;52.282;5.972;2023-04-24T00:45:55;54.1;50.5;55.6;;
78273;Laerm;67530;52.282;5.972;2023-04-24T00:46:16;53;49.3;57.2;;
78273;Laerm;67530;52.282;5.972;2023-04-24T00:46:36;53.2;49.4;55.3;;
78273;Laerm;67530;52.282;5.972;2023-04-24T00:46:56;52.7;48.9;55.1;;
78273;Laerm;67530;52.282;5.972;2023-04-24T00:47:16;52.2;47.8;55;;
78273;Laerm;67530;52.282;5.972;2023-04-24T00:47:36;53.4;49.4;55.2;;
78273;Laerm;67530;52.282;5.972;2023-04-24T00:47:56;53.2;49.7;56.3;;
78273;Laerm;67530;52.282;5.972;2023-04-24T00:48:16;53;49.5;55.3;;
78273;Laerm;67530;52.282;5.972;2023-04-24T00:48:36;53.2;50.1;54.9;;
78273;Laerm;67530;52.282;5.972;2023-04-24T00:48:56;53.4;49.8;55;;
78273;Laerm;67530;52.282;5.972;2023-04-24T00:49:16;52.7;48.2;54.8;;
78273;Laerm;67530;52.282;5.972;2023-04-24T00:49:36;52.5;48.9;54.6;;
78273;Laerm;67530;52.282;5.972;2023-04-24T00:49:56;53.1;49.3;54.8;;
78273;Laerm;67530;52.282;5.972;2023-04-24T00:50:16;52.1;49.1;54.6;;
78273;Laerm;67530;52.282;5.972;2023-04-24T00:50:36;52.3;46.7;55.3;;
78273;Laerm;67530;52.282;5.972;2023-04-24T00:50:56;52.9;48.6;54.5;;
78273;Laerm;67530;52.282;5.972;2023-04-24T00:51:16;52.7;49.7;54.8;;
78273;Laerm;67530;52.282;5.972;2023-04-24T00:51:36;52.5;48.5;54.5;;
78273;Laerm;67530;52.282;5.972;2023-04-24T00:51:56;53;49;54.6;;
78273;Laerm;67530;52.282;5.972;2023-04-24T00:52:17;53.1;50.4;54.8;;
78273;Laerm;67530;52.282;5.972;2023-04-24T00:52:37;52.9;47.1;54.3;;
78273;Laerm;67530;52.282;5.972;2023-04-24T00:52:57;52.2;48.6;54.5;;
78273;Laerm;67530;52.282;5.972;2023-04-24T00:53:17;52.2;47.3;54.3;;
78273;Laerm;67530;52.282;5.972;2023-04-24T00:53:37;52.6;49.3;54.1;;
78273;Laerm;67530;52.282;5.972;2023-04-24T00:53:57;52.8;48;54;;
78273;Laerm;67530;52.282;5.972;2023-04-24T00:54:17;52.8;49;54.3;;
78273;Laerm;67530;52.282;5.972;2023-04-24T00:54:37;53;49.5;54.3;;
78273;Laerm;67530;52.282;5.972;2023-04-24T00:54:57;51.6;47.4;53.6;;
78273;Laerm;67530;52.282;5.972;2023-04-24T00:55:17;52.2;47.7;54;;
78273;Laerm;67530;52.282;5.972;2023-04-24T00:55:37;52.3;47.7;54;;
78273;Laerm;67530;52.282;5.972;2023-04-24T00:55:57;52.4;48.7;53.8;;
78273;Laerm;67530;52.282;5.972;2023-04-24T00:56:17;52.6;48.1;54.2;;
78273;Laerm;67530;52.282;5.972;2023-04-24T00:56:37;51.4;47.8;53.7;;
78273;Laerm;67530;52.282;5.972;2023-04-24T00:56:57;52.3;49;54;;
78273;Laerm;67530;52.282;5.972;2023-04-24T00:57:17;52.3;48.7;53.9;;
78273;Laerm;67530;52.282;5.972;2023-04-24T00:57:38;51.7;47.5;53.4;;
78273;Laerm;67530;52.282;5.972;2023-04-24T00:57:58;50.8;47;53.6;;
78273;Laerm;67530;52.282;5.972;2023-04-24T00:58:18;51.7;47.6;53.8;;
78273;Laerm;67530;52.282;5.972;2023-04-24T00:58:38;51.4;46.5;53.9;;
78273;Laerm;67530;52.282;5.972;2023-04-24T00:58:58;50.4;46.4;53.1;;
78273;Laerm;67530;52.282;5.972;2023-04-24T00:59:18;51.7;46.9;56.1;;
78273;Laerm;67530;52.282;5.972;2023-04-24T00:59:38;50.6;47;53.1;;
78273;Laerm;67530;52.282;5.972;2023-04-24T00:59:58;52.1;49.1;53.7;;
78273;Laerm;67530;52.282;5.972;2023-04-24T01:00:18;52.2;49.5;53.6;;
78273;Laerm;67530;52.282;5.972;2023-04-24T01:00:38;52.3;47.4;54.1;;
78273;Laerm;67530;52.282;5.972;2023-04-24T01:00:58;52.2;48.5;53.7;;
78273;Laerm;67530;52.282;5.972;2023-04-24T01:01:18;50.7;47.2;53.4;;
78273;Laerm;67530;52.282;5.972;2023-04-24T01:01:38;52.1;48.6;53.7;;
78273;Laerm;67530;52.282;5.972;2023-04-24T01:01:58;52.3;48.3;53.5;;
78273;Laerm;67530;52.282;5.972;2023-04-24T01:02:18;50.9;46.5;53.3;;
78273;Laerm;67530;52.282;5.972;2023-04-24T01:02:39;51.1;47.9;53.4;;
78273;Laerm;67530;52.282;5.972;2023-04-24T01:02:59;51.7;48.3;53.3;;
78273;Laerm;67530;52.282;5.972;2023-04-24T01:03:19;51.8;48.3;53.1;;
78273;Laerm;67530;52.282;5.972;2023-04-24T01:03:39;51.4;47.8;53.2;;
78273;Laerm;67530;52.282;5.972;2023-04-24T01:03:59;51.6;46.9;53.2;;
78273;Laerm;67530;52.282;5.972;2023-04-24T01:04:19;51.3;47.2;52.8;;
78273;Laerm;67530;52.282;5.972;2023-04-24T01:04:39;50.7;47;53;;
78273;Laerm;67530;52.282;5.972;2023-04-24T01:04:59;51;46.8;53;;
78273;Laerm;67530;52.282;5.972;2023-04-24T01:05:19;50.6;46.4;52.9;;
78273;Laerm;67530;52.282;5.972;2023-04-24T01:05:39;50.9;47.1;52.9;;
78273;Laerm;67530;52.282;5.972;2023-04-24T01:05:59;50;46;52.9;;
78273;Laerm;67530;52.282;5.972;2023-04-24T01:06:19;49.4;46.4;52.8;;
78273;Laerm;67530;52.282;5.972;2023-04-24T01:06:39;51.3;47.8;52.9;;
78273;Laerm;67530;52.282;5.972;2023-04-24T01:06:59;50.6;46.6;53.2;;
78273;Laerm;67530;52.282;5.972;2023-04-24T01:07:19;51.4;47.7;53.1;;
78273;Laerm;67530;52.282;5.972;2023-04-24T01:07:40;50.2;47.2;52.7;;
78273;Laerm;67530;52.282;5.972;2023-04-24T01:07:59;51.3;47.7;53.4;;
78273;Laerm;67530;52.282;5.972;2023-04-24T01:08:19;50.2;46.9;52.9;;
78273;Laerm;67530;52.282;5.972;2023-04-24T01:08:40;50.1;46.8;52.5;;
78273;Laerm;67530;52.282;5.972;2023-04-24T01:09:00;50;46.3;53.8;;
78273;Laerm;67530;52.282;5.972;2023-04-24T01:09:20;50.7;46.9;52.9;;
78273;Laerm;67530;52.282;5.972;2023-04-24T01:09:40;51.3;48;53.3;;
78273;Laerm;67530;52.282;5.972;2023-04-24T01:10:00;51.2;47.6;53.1;;
78273;Laerm;67530;52.282;5.972;2023-04-24T01:10:20;50.8;46.8;53.4;;
78273;Laerm;67530;52.282;5.972;2023-04-24T01:10:40;51;47.7;53;;
78273;Laerm;67530;52.282;5.972;2023-04-24T01:11:00;51;47.1;53.2;;
78273;Laerm;67530;52.282;5.972;2023-04-24T01:11:20;50.5;47.3;53.2;;
78273;Laerm;67530;52.282;5.972;2023-04-24T01:11:40;51.2;46.8;53.3;;
78273;Laerm;67530;52.282;5.972;2023-04-24T01:12:00;50.1;45.6;53.1;;
78273;Laerm;67530;52.282;5.972;2023-04-24T01:12:20;50.5;46.9;52.9;;
78273;Laerm;67530;52.282;5.972;2023-04-24T01:12:40;49.6;45.7;52.5;;
78273;Laerm;67530;52.282;5.972;2023-04-24T01:13:00;51.2;46.9;53;;
78273;Laerm;67530;52.282;5.972;2023-04-24T01:13:20;50.8;46;53.2;;
78273;Laerm;67530;52.282;5.972;2023-04-24T01:13:40;51.6;48;53.4;;
78273;Laerm;67530;52.282;5.972;2023-04-24T01:14:00;50.9;45;56.2;;
78273;Laerm;67530;52.282;5.972;2023-04-24T01:14:20;50.7;47.3;53;;
78273;Laerm;67530;52.282;5.972;2023-04-24T01:14:41;51.1;47.8;52.9;;
78273;Laerm;67530;52.282;5.972;2023-04-24T01:15:01;51.2;47.6;52.9;;
78273;Laerm;67530;52.282;5.972;2023-04-24T01:15:21;51.2;47.8;53.1;;
78273;Laerm;67530;52.282;5.972;2023-04-24T01:15:41;50.8;46.7;52.9;;
78273;Laerm;67530;52.282;5.972;2023-04-24T01:16:01;50.4;47.3;53.2;;
78273;Laerm;67530;52.282;5.972;2023-04-24T01:16:21;51.4;48.2;53;;
78273;Laerm;67530;52.282;5.972;2023-04-24T01:16:41;51.6;48.2;53.2;;
78273;Laerm;67530;52.282;5.972;2023-04-24T01:17:01;51.2;47.4;53.2;;
78273;Laerm;67530;52.282;5.972;2023-04-24T01:17:21;50;46.5;53.1;;
78273;Laerm;67530;52.282;5.972;2023-04-24T01:17:41;50.8;47.2;53.2;;
78273;Laerm;67530;52.282;5.972;2023-04-24T01:18:02;50.4;46.5;53;;
78273;Laerm;67530;52.282;5.972;2023-04-24T01:18:21;50.8;47.4;53.1;;
78273;Laerm;67530;52.282;5.972;2023-04-24T01:18:41;51;46.8;53;;
78273;Laerm;67530;52.282;5.972;2023-04-24T01:19:01;50.1;46;52.5;;
78273;Laerm;67530;52.282;5.972;2023-04-24T01:19:21;51.3;47.6;52.7;;
78273;Laerm;67530;52.282;5.972;2023-04-24T01:19:41;51.4;47.8;52.6;;
78273;Laerm;67530;52.282;5.972;2023-04-24T01:20:02;51;46.4;52.9;;
78273;Laerm;67530;52.282;5.972;2023-04-24T01:20:22;49.7;47.2;52.5;;
78273;Laerm;67530;52.282;5.972;2023-04-24T01:20:42;50;45.1;52.4;;
78273;Laerm;67530;52.282;5.972;2023-04-24T01:21:02;50.8;46.6;52.5;;
78273;Laerm;67530;52.282;5.972;2023-04-24T01:21:22;50.1;45.4;52.6;;
78273;Laerm;67530;52.282;5.972;2023-04-24T01:21:42;50.2;46.1;53.9;;
78273;Laerm;67530;52.282;5.972;2023-04-24T01:22:02;51;47.1;52.7;;
78273;Laerm;67530;52.282;5.972;2023-04-24T01:22:22;50.5;45.5;53.1;;
78273;Laerm;67530;52.282;5.972;2023-04-24T01:22:42;49.8;45.9;52.7;;
78273;Laerm;67530;52.282;5.972;2023-04-24T01:23:02;49.4;45.6;52.1;;
78273;Laerm;67530;52.282;5.972;2023-04-24T01:23:22;50;46.4;56.1;;
78273;Laerm;67530;52.282;5.972;2023-04-24T01:23:42;51;47.1;52.9;;
78273;Laerm;67530;52.282;5.972;2023-04-24T01:24:02;50.5;46.7;52.9;;
78273;Laerm;67530;52.282;5.972;2023-04-24T01:24:22;50.4;46;53;;
78273;Laerm;67530;52.282;5.972;2023-04-24T01:24:43;50.3;46.7;52.8;;
78273;Laerm;67530;52.282;5.972;2023-04-24T01:25:03;50.6;46.7;52.9;;
78273;Laerm;67530;52.282;5.972;2023-04-24T01:25:23;50.9;46.8;53.1;;
78273;Laerm;67530;52.282;5.972;2023-04-24T01:25:43;50.1;45.8;52.6;;
78273;Laerm;67530;52.282;5.972;2023-04-24T01:26:03;50.8;45.7;52.5;;
78273;Laerm;67530;52.282;5.972;2023-04-24T01:26:23;51.1;48.1;52.4;;
78273;Laerm;67530;52.282;5.972;2023-04-24T01:26:43;49.9;44.8;52.2;;
78273;Laerm;67530;52.282;5.972;2023-04-24T01:27:03;49.9;44.8;52.3;;
78273;Laerm;67530;52.282;5.972;2023-04-24T01:27:23;49.6;44.6;52.1;;
78273;Laerm;67530;52.282;5.972;2023-04-24T01:27:43;50.5;46.8;52.3;;
78273;Laerm;67530;52.282;5.972;2023-04-24T01:28:03;50.1;45.8;52.3;;
78273;Laerm;67530;52.282;5.972;2023-04-24T01:28:23;49.8;45.8;51.8;;
78273;Laerm;67530;52.282;5.972;2023-04-24T01:28:43;50.4;46.6;52.2;;
78273;Laerm;67530;52.282;5.972;2023-04-24T01:29:03;50.2;47;55.8;;
78273;Laerm;67530;52.282;5.972;2023-04-24T01:29:23;50.2;47.4;52.5;;
78273;Laerm;67530;52.282;5.972;2023-04-24T01:29:43;51.1;46;57.8;;
78273;Laerm;67530;52.282;5.972;2023-04-24T01:30:04;50.8;47.8;52.7;;
78273;Laerm;67530;52.282;5.972;2023-04-24T01:30:23;50.6;46;52.3;;
78273;Laerm;67530;52.282;5.972;2023-04-24T01:30:43;50.7;47.6;52.5;;
78273;Laerm;67530;52.282;5.972;2023-04-24T01:31:04;51;47.1;52.4;;
78273;Laerm;67530;52.282;5.972;2023-04-24T01:31:24;51.2;47.4;52.7;;
78273;Laerm;67530;52.282;5.972;2023-04-24T01:31:44;50.8;47;52.4;;
78273;Laerm;67530;52.282;5.972;2023-04-24T01:32:04;49.4;45.6;51.8;;
78273;Laerm;67530;52.282;5.972;2023-04-24T01:32:24;50.6;47.4;52.2;;
78273;Laerm;67530;52.282;5.972;2023-04-24T01:32:44;50.6;47.2;52.1;;
78273;Laerm;67530;52.282;5.972;2023-04-24T01:33:04;50.4;46;52.1;;
78273;Laerm;67530;52.282;5.972;2023-04-24T01:33:44;49.4;44.7;51.8;;
78273;Laerm;67530;52.282;5.972;2023-04-24T01:34:04;50.5;46.8;51.9;;
78273;Laerm;67530;52.282;5.972;2023-04-24T01:34:24;50.1;47.2;51.9;;
78273;Laerm;67530;52.282;5.972;2023-04-24T01:34:44;50.5;45.7;52.2;;
78273;Laerm;67530;52.282;5.972;2023-04-24T01:35:04;49.9;46.4;52.1;;
78273;Laerm;67530;52.282;5.972;2023-04-24T01:35:24;50.8;48.2;52.2;;
78273;Laerm;67530;52.282;5.972;2023-04-24T01:35:44;50.4;46.5;52;;
78273;Laerm;67530;52.282;5.972;2023-04-24T01:36:04;50.9;47.9;52.1;;
78273;Laerm;67530;52.282;5.972;2023-04-24T01:36:24;50.3;47.2;52;;
78273;Laerm;67530;52.282;5.972;2023-04-24T01:36:45;49;45.2;51.8;;
78273;Laerm;67530;52.282;5.972;2023-04-24T01:37:05;49.2;44.2;51.9;;
78273;Laerm;67530;52.282;5.972;2023-04-24T01:37:25;51;48.6;52.5;;
78273;Laerm;67530;52.282;5.972;2023-04-24T01:37:45;50.5;46.7;52.1;;
78273;Laerm;67530;52.282;5.972;2023-04-24T01:38:05;50.4;46.9;52.2;;
78273;Laerm;67530;52.282;5.972;2023-04-24T01:38:25;50.8;47.1;52.4;;
78273;Laerm;67530;52.282;5.972;2023-04-24T01:38:45;49.9;46.2;51.8;;
78273;Laerm;67530;52.282;5.972;2023-04-24T01:39:05;49.9;46.8;52.2;;
78273;Laerm;67530;52.282;5.972;2023-04-24T01:39:25;49.7;45.8;52.1;;
78273;Laerm;67530;52.282;5.972;2023-04-24T01:39:45;50.3;45.6;52.3;;
78273;Laerm;67530;52.282;5.972;2023-04-24T01:40:06;49.6;45.6;52.1;;
78273;Laerm;67530;52.282;5.972;2023-04-24T01:40:25;51;48.3;52.4;;
78273;Laerm;67530;52.282;5.972;2023-04-24T01:40:45;51.3;48.1;52.6;;
78273;Laerm;67530;52.282;5.972;2023-04-24T01:41:05;51.2;48.7;52.4;;
78273;Laerm;67530;52.282;5.972;2023-04-24T01:41:25;50.3;46.3;52.5;;
78273;Laerm;67530;52.282;5.972;2023-04-24T01:41:45;50.8;47.3;52.7;;
78273;Laerm;67530;52.282;5.972;2023-04-24T01:42:05;50;45.9;52.1;;
78273;Laerm;67530;52.282;5.972;2023-04-24T01:42:25;50.5;47.1;52.1;;
78273;Laerm;67530;52.282;5.972;2023-04-24T01:42:46;50.8;47.3;52.4;;
78273;Laerm;67530;52.282;5.972;2023-04-24T01:43:06;50.2;46.7;52.1;;
78273;Laerm;67530;52.282;5.972;2023-04-24T01:43:26;50.8;48.4;52.2;;
78273;Laerm;67530;52.282;5.972;2023-04-24T01:43:46;50.6;46.7;52.2;;
78273;Laerm;67530;52.282;5.972;2023-04-24T01:44:06;51;48.1;52.1;;
78273;Laerm;67530;52.282;5.972;2023-04-24T01:44:26;50.1;46.5;52.1;;
78273;Laerm;67530;52.282;5.972;2023-04-24T01:44:46;50.7;48.2;52.2;;
78273;Laerm;67530;52.282;5.972;2023-04-24T01:45:06;50.6;45.9;53.4;;
78273;Laerm;67530;52.282;5.972;2023-04-24T01:45:26;49.5;45;52.5;;
78273;Laerm;67530;52.282;5.972;2023-04-24T01:45:46;49.8;45.6;51.7;;
78273;Laerm;67530;52.282;5.972;2023-04-24T01:46:06;50.4;47.4;51.9;;
78273;Laerm;67530;52.282;5.972;2023-04-24T01:46:26;50.3;45.6;52;;
78273;Laerm;67530;52.282;5.972;2023-04-24T01:46:46;50.3;46.7;51.7;;
78273;Laerm;67530;52.282;5.972;2023-04-24T01:47:06;50.2;47.1;52;;
78273;Laerm;67530;52.282;5.972;2023-04-24T01:47:26;49.9;45.5;51.7;;
78273;Laerm;67530;52.282;5.972;2023-04-24T01:47:46;50.8;47.7;51.7;;
78273;Laerm;67530;52.282;5.972;2023-04-24T01:48:07;50.6;47.2;51.9;;
78273;Laerm;67530;52.282;5.972;2023-04-24T01:48:27;50.5;48;52.1;;
78273;Laerm;67530;52.282;5.972;2023-04-24T01:48:47;48.6;44.3;51.7;;
78273;Laerm;67530;52.282;5.972;2023-04-24T01:49:07;49.1;45.5;51.7;;
78273;Laerm;67530;52.282;5.972;2023-04-24T01:49:27;48.9;44.9;51.6;;
78273;Laerm;67530;52.282;5.972;2023-04-24T01:49:47;50.3;46.5;51.6;;
78273;Laerm;67530;52.282;5.972;2023-04-24T01:50:07;50.6;47.3;51.9;;
78273;Laerm;67530;52.282;5.972;2023-04-24T01:50:27;49.4;45.2;51.6;;
78273;Laerm;67530;52.282;5.972;2023-04-24T01:50:47;50.1;46.7;51.6;;
78273;Laerm;67530;52.282;5.972;2023-04-24T01:51:07;49.1;43.3;51.7;;
78273;Laerm;67530;52.282;5.972;2023-04-24T01:51:27;49.4;45.7;51.4;;
78273;Laerm;67530;52.282;5.972;2023-04-24T01:51:48;50.1;46;51.6;;
78273;Laerm;67530;52.282;5.972;2023-04-24T01:52:07;50.5;47.9;51.7;;
78273;Laerm;67530;52.282;5.972;2023-04-24T01:52:27;50.2;47.2;51.5;;
78273;Laerm;67530;52.282;5.972;2023-04-24T01:52:47;50.3;46.7;51.5;;
78273;Laerm;67530;52.282;5.972;2023-04-24T01:53:07;49.8;45.9;52.7;;
78273;Laerm;67530;52.282;5.972;2023-04-24T01:53:27;50.4;46.6;51.6;;
78273;Laerm;67530;52.282;5.972;2023-04-24T01:53:47;50.2;46.3;52;;
78273;Laerm;67530;52.282;5.972;2023-04-24T01:54:08;48.8;44.5;53.2;;
78273;Laerm;67530;52.282;5.972;2023-04-24T01:54:28;48.9;45;51.2;;
78273;Laerm;67530;52.282;5.972;2023-04-24T01:54:48;49.5;43.7;51.8;;
78273;Laerm;67530;52.282;5.972;2023-04-24T01:55:08;49.9;46.1;51.5;;
78273;Laerm;67530;52.282;5.972;2023-04-24T01:55:28;49;44.4;51;;
78273;Laerm;67530;52.282;5.972;2023-04-24T01:55:48;48.7;44.8;51.5;;
78273;Laerm;67530;52.282;5.972;2023-04-24T01:56:08;48.3;44.3;51.1;;
78273;Laerm;67530;52.282;5.972;2023-04-24T01:56:28;48.5;44.7;51.5;;
78273;Laerm;67530;52.282;5.972;2023-04-24T01:56:48;48;44.5;50.2;;
78273;Laerm;67530;52.282;5.972;2023-04-24T01:57:08;48.6;44.2;51.2;;
78273;Laerm;67530;52.282;5.972;2023-04-24T01:57:28;49;45.2;51.2;;
78273;Laerm;67530;52.282;5.972;2023-04-24T01:57:48;49.1;44.2;51.7;;
78273;Laerm;67530;52.282;5.972;2023-04-24T01:58:08;48.4;45.2;51.3;;
78273;Laerm;67530;52.282;5.972;2023-04-24T01:58:28;50.4;47.2;51.7;;
78273;Laerm;67530;52.282;5.972;2023-04-24T01:58:49;50.2;45.7;51.7;;